createdAt,value
2022-11-26T00:02:26.543Z,65.60
2022-11-26T00:04:56.756Z,64.60
2022-11-26T00:07:29.326Z,62.00
2022-11-26T00:09:59.698Z,62.70
2022-11-26T00:12:32.163Z,59.40
2022-11-26T00:15:11.213Z,63.70
2022-11-26T00:17:38.999Z,65.00
2022-11-26T00:20:08.102Z,63.70
2022-11-26T00:22:41.949Z,64.20
2022-11-26T00:25:26.399Z,64.00
2022-11-26T00:27:58.253Z,62.70
2022-11-26T00:30:28.442Z,62.80
2022-11-26T00:32:56.372Z,59.40
2022-11-26T00:35:25.273Z,60.90
2022-11-26T00:37:57.219Z,59.20
2022-11-26T00:40:28.280Z,59.60
2022-11-26T00:43:01.669Z,60.20
2022-11-26T00:45:31.548Z,57.70
2022-11-26T00:48:01.956Z,58.10
2022-11-26T00:50:37.698Z,59.60
2022-11-26T00:53:08.315Z,57.90
2022-11-26T00:55:40.356Z,55.50
2022-11-26T00:58:21.825Z,57.40
2022-11-26T01:00:49.704Z,53.30
2022-11-26T01:03:18.775Z,60.50
2022-11-26T01:05:53.194Z,53.20
2022-11-26T01:08:27.579Z,50.90
2022-11-26T01:10:55.512Z,52.60
2022-11-26T01:13:24.312Z,52.20
2022-11-26T01:15:56.377Z,51.80
2022-11-26T01:18:25.162Z,51.40
2022-11-26T01:20:52.921Z,51.70
2022-11-26T01:23:20.990Z,53.10
2022-11-26T01:25:48.802Z,51.20
2022-11-26T01:28:20.045Z,51.70
2022-11-26T01:30:47.836Z,51.80
2022-11-26T01:33:15.793Z,49.50
2022-11-26T01:35:44.296Z,50.60
2022-11-26T01:38:16.294Z,48.50
2022-11-26T01:40:56.224Z,46.90
2022-11-26T01:43:33.683Z,48.60
2022-11-26T01:46:02.093Z,46.40
2022-11-26T01:48:34.468Z,45.20
2022-11-26T01:51:04.226Z,41.70
2022-11-26T01:53:46.250Z,40.00
2022-11-26T01:56:24.938Z,44.80
2022-11-26T01:58:59.033Z,45.30
2022-11-26T02:01:30.312Z,41.80
2022-11-26T02:04:14.380Z,42.10
2022-11-26T02:09:13.169Z,40.70
2022-11-26T02:11:41.960Z,42.30
2022-11-26T02:14:24.150Z,41.50
2022-11-26T02:17:26.040Z,41.70
2022-11-26T02:20:17.992Z,39.50
2022-11-26T02:22:55.036Z,38.80
2022-11-26T02:25:51.047Z,39.30
2022-11-26T02:28:50.553Z,40.00
2022-11-26T02:31:44.183Z,38.90
2022-11-26T02:34:38.014Z,37.80
2022-11-26T02:37:13.283Z,35.00
2022-11-26T02:39:41.337Z,36.10
2022-11-26T02:42:31.107Z,38.40
2022-11-26T02:45:06.139Z,35.10
2022-11-26T02:47:38.095Z,34.50
2022-11-26T02:50:12.589Z,34.60
2022-11-26T02:52:43.262Z,34.00
2022-11-26T02:55:15.649Z,33.00
2022-11-26T02:57:49.118Z,32.80
2022-11-26T03:00:18.127Z,30.90
2022-11-26T03:03:02.330Z,32.90
2022-11-26T03:05:37.189Z,30.90
2022-11-26T03:08:07.514Z,29.90
2022-11-26T03:10:35.972Z,31.80
2022-11-26T03:13:03.785Z,30.40
2022-11-26T03:15:31.542Z,31.30
2022-11-26T03:17:59.304Z,31.80
2022-11-26T03:20:27.060Z,34.20
2022-11-26T03:22:54.953Z,29.70
2022-11-26T03:25:23.456Z,30.90
2022-11-26T03:27:51.189Z,31.00
2022-11-26T03:30:19.117Z,29.60
2022-11-26T03:32:47.088Z,30.10
2022-11-26T03:35:14.817Z,29.50
2022-11-26T03:37:42.643Z,31.30
2022-11-26T03:40:11.312Z,29.40
2022-11-26T03:42:39.326Z,30.10
2022-11-26T03:45:08.297Z,29.50
2022-11-26T03:47:36.301Z,28.50
2022-11-26T03:50:06.871Z,29.30
2022-11-26T03:52:34.652Z,28.40
2022-11-26T03:55:02.484Z,29.10
2022-11-26T03:57:30.455Z,28.00
2022-11-26T03:59:58.220Z,27.90
2022-11-26T04:02:25.946Z,27.30
2022-11-26T04:04:55.199Z,28.30
2022-11-26T04:07:23.041Z,27.40
2022-11-26T04:09:51.410Z,26.20
2022-11-26T04:12:19.189Z,28.70
2022-11-26T04:14:46.918Z,26.40
2022-11-26T04:17:14.644Z,24.90
2022-11-26T04:19:42.635Z,24.70
2022-11-26T04:22:10.475Z,25.20
2022-11-26T04:24:38.442Z,27.20
2022-11-26T04:27:06.856Z,24.70
2022-11-26T04:29:36.963Z,26.50
2022-11-26T04:32:06.049Z,24.20
2022-11-26T04:34:34.264Z,25.00
2022-11-26T04:37:02.127Z,22.60
2022-11-26T04:39:29.952Z,22.80
2022-11-26T04:41:57.751Z,23.90
2022-11-26T04:44:27.625Z,24.20
2022-11-26T04:46:55.853Z,22.20
2022-11-26T04:49:23.682Z,23.50
2022-11-26T04:51:51.666Z,24.20
2022-11-26T04:54:19.612Z,22.30
2022-11-26T04:56:47.576Z,22.50
2022-11-26T04:59:16.134Z,22.00
2022-11-26T05:01:44.015Z,21.70
2022-11-26T05:04:11.831Z,21.50
2022-11-26T05:06:39.570Z,21.40
2022-11-26T05:09:07.303Z,21.80
2022-11-26T05:11:35.027Z,19.40
2022-11-26T05:14:02.814Z,20.90
2022-11-26T05:16:30.663Z,22.50
2022-11-26T05:18:58.465Z,20.80
2022-11-26T05:21:26.235Z,20.70
2022-11-26T05:23:53.963Z,21.90
2022-11-26T05:26:21.713Z,20.30
2022-11-26T05:28:49.509Z,20.70
2022-11-26T05:31:18.225Z,20.20
2022-11-26T05:33:46.302Z,20.80
2022-11-26T05:36:14.954Z,21.30
2022-11-26T05:38:42.982Z,21.50
2022-11-26T05:41:10.962Z,21.20
2022-11-26T05:43:39.379Z,19.70
2022-11-26T05:46:10.381Z,21.90
2022-11-26T05:48:38.647Z,20.90
2022-11-26T05:51:06.497Z,21.00
2022-11-26T05:53:35.438Z,21.50
2022-11-26T05:56:03.270Z,20.60
2022-11-26T05:58:31.158Z,18.90
2022-11-26T06:00:59.110Z,20.60
2022-11-26T06:03:28.453Z,20.00
2022-11-26T06:05:57.552Z,20.30
2022-11-26T06:08:25.316Z,21.30
2022-11-26T06:10:53.342Z,20.00
2022-11-26T06:13:21.133Z,21.90
2022-11-26T06:15:48.871Z,21.20
2022-11-26T06:18:18.705Z,19.40
2022-11-26T06:20:46.456Z,20.10
2022-11-26T06:23:14.997Z,21.10
2022-11-26T06:25:44.654Z,21.40
2022-11-26T06:28:12.666Z,20.10
2022-11-26T06:30:40.619Z,18.60
2022-11-26T06:33:09.991Z,20.40
2022-11-26T06:35:37.930Z,19.10
2022-11-26T06:38:06.271Z,18.70
2022-11-26T06:40:34.047Z,18.00
2022-11-26T06:43:01.901Z,19.20
2022-11-26T06:45:29.629Z,19.40
2022-11-26T06:47:57.433Z,18.90
2022-11-26T06:50:25.225Z,18.60
2022-11-26T06:52:55.036Z,18.30
2022-11-26T06:55:23.627Z,18.90
2022-11-26T06:57:53.056Z,19.20
2022-11-26T07:00:23.331Z,18.30
2022-11-26T07:02:51.181Z,19.00
2022-11-26T07:05:19.120Z,17.50
2022-11-26T07:07:46.917Z,19.50
2022-11-26T07:10:14.723Z,19.30
2022-11-26T07:12:42.499Z,17.50
2022-11-26T07:15:10.692Z,19.00
2022-11-26T07:17:38.598Z,19.50
2022-11-26T07:20:07.085Z,18.00
2022-11-26T07:22:36.265Z,18.60
2022-11-26T07:25:12.147Z,19.90
2022-11-26T07:27:41.795Z,18.60
2022-11-26T07:30:12.015Z,19.20
2022-11-26T07:32:39.915Z,21.30
2022-11-26T07:35:07.778Z,22.80
2022-11-26T07:37:35.640Z,22.60
2022-11-26T07:40:06.713Z,23.60
2022-11-26T07:42:36.069Z,22.60
2022-11-26T07:45:04.781Z,22.50
2022-11-26T07:47:32.650Z,22.30
2022-11-26T07:50:00.553Z,23.30
2022-11-26T07:52:28.331Z,22.10
2022-11-26T07:54:56.181Z,22.40
2022-11-26T07:57:26.344Z,21.60
2022-11-26T07:59:54.154Z,23.80
2022-11-26T08:02:21.984Z,21.50
2022-11-26T08:04:50.077Z,23.30
2022-11-26T08:07:24.334Z,21.40
2022-11-26T08:09:57.620Z,21.60
2022-11-26T08:12:25.536Z,23.30
2022-11-26T08:14:53.312Z,20.90
2022-11-26T08:17:21.074Z,23.20
2022-11-26T08:19:48.810Z,22.20
2022-11-26T08:22:16.566Z,25.90
2022-11-26T08:24:45.633Z,23.50
2022-11-26T08:27:16.521Z,23.30
2022-11-26T08:29:44.574Z,21.90
2022-11-26T08:32:12.332Z,22.20
2022-11-26T08:34:40.432Z,20.80
2022-11-26T08:37:09.845Z,21.40
2022-11-26T08:39:37.687Z,21.00
2022-11-26T08:42:05.522Z,21.00
2022-11-26T08:44:33.289Z,20.60
2022-11-26T08:47:01.049Z,21.30
2022-11-26T08:49:28.809Z,20.80
2022-11-26T08:51:58.146Z,20.30
2022-11-26T08:54:25.942Z,19.50
2022-11-26T08:56:56.072Z,19.80
2022-11-26T08:59:24.778Z,18.80
2022-11-26T09:01:52.791Z,17.90
2022-11-26T09:04:20.693Z,18.80
2022-11-26T09:06:48.719Z,19.80
2022-11-26T09:09:19.126Z,18.20
2022-11-26T09:11:58.018Z,17.90
2022-11-26T09:14:30.758Z,16.80
2022-11-26T09:16:58.713Z,12.60
2022-11-26T09:19:28.597Z,17.00
2022-11-26T09:21:56.636Z,16.70
2022-11-26T09:24:27.290Z,18.60
2022-11-26T09:26:55.173Z,17.10
2022-11-26T09:29:24.783Z,17.10
2022-11-26T09:32:21.945Z,18.50
2022-11-26T09:34:42.583Z,18.10
2022-11-26T09:37:11.799Z,17.20
2022-11-26T09:39:41.251Z,19.10
2022-11-26T09:42:30.394Z,17.70
2022-11-26T09:45:12.553Z,18.60
2022-11-26T09:47:52.424Z,17.90
2022-11-26T09:50:35.461Z,17.20
2022-11-26T09:53:32.009Z,18.60
2022-11-26T09:56:03.955Z,18.00
2022-11-26T09:59:04.899Z,17.50
2022-11-26T10:01:34.766Z,18.00
2022-11-26T10:04:10.370Z,18.40
2022-11-26T10:06:40.970Z,17.80
2022-11-26T10:09:25.667Z,19.70
2022-11-26T10:12:24.667Z,19.70
2022-11-26T10:15:19.784Z,17.80
2022-11-26T10:17:58.510Z,18.30
2022-11-26T10:20:52.684Z,18.70
2022-11-26T10:25:55.345Z,18.90
2022-11-26T10:28:44.795Z,18.20
2022-11-26T10:31:27.048Z,17.80
2022-11-26T10:34:05.141Z,19.20
2022-11-26T10:36:41.912Z,19.20
2022-11-26T10:39:16.180Z,18.00
2022-11-26T10:41:45.311Z,18.10
2022-11-26T10:44:41.888Z,19.20
2022-11-26T10:47:32.975Z,18.00
2022-11-26T10:50:19.187Z,18.80
2022-11-26T10:52:53.611Z,18.90
2022-11-26T10:55:33.598Z,20.00
2022-11-26T10:58:05.900Z,20.40
2022-11-26T11:00:50.128Z,17.90
2022-11-26T11:03:33.221Z,19.80
2022-11-26T11:06:25.428Z,20.70
2022-11-26T11:08:56.691Z,20.70
2022-11-26T11:11:28.626Z,20.10
2022-11-26T11:13:58.227Z,19.70
2022-11-26T11:16:38.443Z,20.60
2022-11-26T11:19:21.905Z,20.00
2022-11-26T11:21:51.546Z,20.40
2022-11-26T11:24:27.288Z,20.40
2022-11-26T11:27:00.423Z,21.20
2022-11-26T11:29:39.295Z,20.40
2022-11-26T11:32:34.711Z,20.90
2022-11-26T11:35:19.964Z,19.80
2022-11-26T11:37:51.937Z,19.60
2022-11-26T11:40:25.558Z,20.80
2022-11-26T11:45:40.156Z,19.90
2022-11-26T11:48:26.096Z,19.80
2022-11-26T11:51:26.333Z,18.70
2022-11-26T11:54:07.793Z,21.50
2022-11-26T11:56:45.425Z,20.20
2022-11-26T11:59:59.494Z,19.50
2022-11-26T12:02:57.964Z,20.80
2022-11-26T12:05:50.115Z,22.30
2022-11-26T12:08:51.964Z,22.30
2022-11-26T12:11:37.882Z,21.70
2022-11-26T12:14:22.151Z,22.70
2022-11-26T12:16:56.951Z,21.80
2022-11-26T12:19:48.873Z,23.90
2022-11-26T12:22:30.109Z,23.80
2022-11-26T12:25:37.288Z,22.20
2022-11-26T12:28:36.736Z,23.00
2022-11-26T12:31:30.364Z,22.90
2022-11-26T12:34:14.128Z,24.10
2022-11-26T12:36:54.320Z,25.40
2022-11-26T12:39:58.466Z,26.10
2022-11-26T12:42:45.933Z,24.50
2022-11-26T12:45:30.889Z,24.00
2022-11-26T12:48:08.309Z,24.40
2022-11-26T12:50:50.160Z,24.80
2022-11-26T12:53:43.611Z,23.80
2022-11-26T12:56:52.300Z,25.20
2022-11-26T12:59:32.418Z,26.90
2022-11-26T13:02:18.436Z,28.30
2022-11-26T13:04:46.586Z,27.50
2022-11-26T13:07:33.303Z,27.30
2022-11-26T13:10:19.955Z,25.20
2022-11-26T13:13:03.980Z,25.90
2022-11-26T13:15:47.468Z,24.60
2022-11-26T13:18:28.033Z,25.00
2022-11-26T13:21:09.327Z,25.50
2022-11-26T13:24:01.633Z,24.90
2022-11-26T13:26:51.237Z,25.70
2022-11-26T13:29:56.363Z,23.60
2022-11-26T13:32:39.168Z,24.50
2022-11-26T13:35:37.414Z,24.20
2022-11-26T13:38:27.167Z,25.30
2022-11-26T13:41:41.777Z,23.90
2022-11-26T13:44:21.539Z,23.10
2022-11-26T13:47:00.566Z,23.00
2022-11-26T13:49:45.837Z,23.40
2022-11-26T13:55:36.560Z,23.60
2022-11-26T13:58:14.600Z,25.40
2022-11-26T14:00:44.943Z,27.40
2022-11-26T14:03:48.609Z,29.20
2022-11-26T14:06:16.430Z,28.00
2022-11-26T14:08:49.367Z,33.60
2022-11-26T14:11:55.736Z,53.00
2022-11-26T14:14:26.530Z,38.80
2022-11-26T14:17:16.279Z,34.50
2022-11-26T14:19:44.322Z,31.40
2022-11-26T14:22:21.303Z,34.80
2022-11-26T14:24:51.701Z,31.90
2022-11-26T14:27:29.368Z,30.50
2022-11-26T14:30:06.240Z,26.80
2022-11-26T14:32:59.673Z,28.90
2022-11-26T14:35:35.611Z,28.10
2022-11-26T14:38:07.588Z,28.90
2022-11-26T14:40:38.662Z,27.60
2022-11-26T14:43:23.714Z,26.00
2022-11-26T14:46:21.249Z,28.80
2022-11-26T14:48:52.053Z,27.10
2022-11-26T14:51:26.282Z,28.90
2022-11-26T14:53:56.940Z,29.50
2022-11-26T14:56:26.892Z,31.70
2022-11-26T14:59:00.679Z,32.30
2022-11-26T15:01:32.555Z,31.60
2022-11-26T15:04:05.203Z,33.60
2022-11-26T15:06:38.837Z,32.30
2022-11-26T15:11:58.820Z,28.70
2022-11-26T15:14:41.236Z,28.70
2022-11-26T15:17:15.908Z,30.50
2022-11-26T15:19:43.926Z,32.10
2022-11-26T15:22:39.466Z,32.70
2022-11-26T15:25:28.571Z,31.80
2022-11-26T15:28:07.478Z,30.40
2022-11-26T15:30:38.303Z,34.30
2022-11-26T15:33:09.196Z,34.20
2022-11-26T15:35:40.187Z,34.00
2022-11-26T15:38:19.993Z,36.20
2022-11-26T15:40:57.037Z,37.30
2022-11-26T15:43:29.546Z,38.20
2022-11-26T15:46:12.288Z,41.20
2022-11-26T15:48:58.547Z,43.20
2022-11-26T15:51:44.845Z,41.00
2022-11-26T15:54:30.837Z,43.20
2022-11-26T15:57:31.475Z,43.20
2022-11-26T16:00:26.868Z,45.90
2022-11-26T16:02:54.885Z,45.30
2022-11-26T16:05:35.129Z,47.30
2022-11-26T16:08:26.019Z,45.30
2022-11-26T16:11:02.897Z,47.50
2022-11-26T16:13:33.640Z,50.00
2022-11-26T16:16:17.514Z,47.80
2022-11-26T16:18:55.498Z,52.10
2022-11-26T16:21:32.965Z,52.80
2022-11-26T16:24:08.381Z,56.80
2022-11-26T16:27:06.363Z,54.40
2022-11-26T16:29:36.238Z,52.70
2022-11-26T16:32:05.781Z,57.30
2022-11-26T16:34:33.595Z,61.60
2022-11-26T16:37:17.671Z,53.50
2022-11-26T16:39:47.793Z,53.50
2022-11-26T16:42:24.158Z,55.20
2022-11-26T16:44:54.567Z,52.10
2022-11-26T16:47:29.040Z,51.40
2022-11-26T16:49:57.211Z,50.20
2022-11-26T16:52:26.477Z,45.20
2022-11-26T16:55:00.931Z,47.10
2022-11-26T16:57:28.710Z,48.50
2022-11-26T17:00:04.893Z,50.80
2022-11-26T17:02:34.931Z,52.60
2022-11-26T17:05:06.202Z,51.90
2022-11-26T17:07:40.319Z,50.80
2022-11-26T17:10:15.974Z,48.50
2022-11-26T17:12:45.850Z,47.90
2022-11-26T17:15:13.760Z,45.70
2022-11-26T17:17:43.335Z,43.60
2022-11-26T17:20:26.850Z,42.20
2022-11-26T17:22:54.622Z,40.70
2022-11-26T17:25:22.391Z,42.50
2022-11-26T17:27:50.162Z,43.80
2022-11-26T17:30:21.733Z,46.30
2022-11-26T17:32:51.147Z,47.10
2022-11-26T17:35:18.973Z,45.80
2022-11-26T17:37:46.980Z,47.30
2022-11-26T17:40:23.557Z,48.10
2022-11-26T17:42:51.385Z,45.70
2022-11-26T17:45:21.372Z,44.70
2022-11-26T17:47:50.761Z,38.60
2022-11-26T17:50:30.978Z,38.10
2022-11-26T17:52:58.779Z,36.10
2022-11-26T17:55:28.501Z,34.00
2022-11-26T17:57:58.080Z,32.30
2022-11-26T18:00:29.389Z,32.90
2022-11-26T18:03:00.467Z,31.80
2022-11-26T18:05:30.186Z,33.60
2022-11-26T18:07:59.509Z,33.40
2022-11-26T18:10:30.013Z,34.50
2022-11-26T18:12:59.915Z,35.80
2022-11-26T18:15:27.718Z,36.80
2022-11-26T18:17:57.148Z,33.50
2022-11-26T18:20:28.954Z,33.40
2022-11-26T18:23:00.713Z,33.40
2022-11-26T18:25:35.014Z,33.30
2022-11-26T18:28:02.807Z,35.10
2022-11-26T18:30:30.724Z,37.40
2022-11-26T18:32:58.604Z,34.90
2022-11-26T18:35:26.392Z,38.70
2022-11-26T18:37:54.231Z,39.00
2022-11-26T18:40:22.091Z,40.60
2022-11-26T18:42:54.469Z,42.60
2022-11-26T18:45:22.295Z,41.40
2022-11-26T18:47:54.207Z,40.30
2022-11-26T18:50:21.949Z,45.80
2022-11-26T18:52:49.706Z,49.70
2022-11-26T18:55:17.806Z,46.20
2022-11-26T18:57:45.864Z,49.30
2022-11-26T19:00:14.265Z,47.10
2022-11-26T19:02:42.068Z,47.40
2022-11-26T19:05:10.044Z,48.50
2022-11-26T19:07:37.826Z,46.90
2022-11-26T19:10:07.877Z,48.00
2022-11-26T19:12:35.703Z,40.60
2022-11-26T19:15:03.859Z,40.10
2022-11-26T19:17:31.808Z,37.70
2022-11-26T19:19:59.644Z,38.70
2022-11-26T19:22:28.840Z,37.60
2022-11-26T19:24:56.604Z,38.30
2022-11-26T19:27:24.399Z,35.50
2022-11-26T19:29:53.818Z,40.40
2022-11-26T19:32:21.643Z,41.50
2022-11-26T19:34:49.438Z,39.20
2022-11-26T19:37:17.347Z,37.60
2022-11-26T19:39:45.143Z,36.40
2022-11-26T19:42:13.103Z,35.00
2022-11-26T19:44:40.957Z,33.00
2022-11-26T19:47:08.740Z,32.40
2022-11-26T19:49:36.737Z,32.10
2022-11-26T19:52:05.012Z,30.80
2022-11-26T19:54:34.629Z,29.50
2022-11-26T19:57:02.669Z,26.30
2022-11-26T19:59:33.755Z,29.00
2022-11-26T20:02:01.920Z,27.90
2022-11-26T20:04:31.489Z,28.40
2022-11-26T20:06:59.253Z,30.70
2022-11-26T20:09:27.194Z,30.80
2022-11-26T20:11:54.949Z,32.70
2022-11-26T20:14:22.923Z,30.40
2022-11-26T20:16:50.777Z,31.70
2022-11-26T20:19:19.484Z,32.40
2022-11-26T20:21:51.434Z,33.50
2022-11-26T20:24:19.416Z,32.90
2022-11-26T20:26:49.102Z,34.30
2022-11-26T20:29:20.197Z,35.00
2022-11-26T20:31:50.594Z,34.40
2022-11-26T20:34:23.504Z,34.60
2022-11-26T20:36:55.878Z,36.90
2022-11-26T20:39:26.306Z,38.20
2022-11-26T20:41:54.106Z,43.50
2022-11-26T20:44:25.499Z,45.00
2022-11-26T20:46:53.408Z,42.40
2022-11-26T20:49:23.721Z,40.60
2022-11-26T20:51:51.635Z,36.60
2022-11-26T20:54:19.356Z,36.30
2022-11-26T20:56:47.192Z,38.00
2022-11-26T20:59:17.409Z,38.90
2022-11-26T21:01:45.464Z,38.10
2022-11-26T21:04:13.291Z,39.50
2022-11-26T21:06:45.863Z,37.70
2022-11-26T21:09:16.631Z,40.10
2022-11-26T21:11:44.709Z,37.60
2022-11-26T21:14:15.195Z,36.10
2022-11-26T21:16:45.028Z,39.70
2022-11-26T21:19:20.556Z,38.50
2022-11-26T21:21:48.638Z,38.10
2022-11-26T21:24:19.862Z,37.80
2022-11-26T21:26:47.941Z,39.00
2022-11-26T21:29:16.054Z,36.10
2022-11-26T21:31:43.905Z,37.30
2022-11-26T21:34:11.646Z,38.10
2022-11-26T21:36:39.462Z,39.80
2022-11-26T21:39:08.363Z,35.60
2022-11-26T21:41:41.582Z,38.60
2022-11-26T21:44:10.991Z,40.90
2022-11-26T21:46:43.102Z,37.70
2022-11-26T21:49:11.349Z,38.10
2022-11-26T21:51:43.429Z,37.00
2022-11-26T21:54:13.470Z,39.00
2022-11-26T21:56:41.292Z,38.50
2022-11-26T21:59:12.405Z,38.50
2022-11-26T22:01:45.402Z,40.20
2022-11-26T22:04:19.269Z,40.70
2022-11-26T22:06:51.233Z,38.20
2022-11-26T22:09:19.035Z,39.70
2022-11-26T22:11:47.108Z,38.90
2022-11-26T22:14:20.079Z,41.10
2022-11-26T22:16:52.758Z,35.20
2022-11-26T22:19:20.912Z,38.60
2022-11-26T22:21:48.741Z,36.90
2022-11-26T22:24:20.727Z,36.90
2022-11-26T22:26:50.624Z,35.70
2022-11-26T22:29:22.735Z,38.30
2022-11-26T22:31:50.736Z,36.30
2022-11-26T22:34:28.156Z,36.00
2022-11-26T22:36:56.266Z,30.40
2022-11-26T22:39:24.338Z,31.10
2022-11-26T22:41:52.269Z,29.90
2022-11-26T22:44:20.253Z,28.20
2022-11-26T22:46:48.116Z,28.80
2022-11-26T22:49:20.287Z,27.90
2022-11-26T22:51:51.550Z,30.60
2022-11-26T22:54:19.440Z,29.40
2022-11-26T22:56:47.245Z,29.80
2022-11-26T22:59:15.217Z,30.40
2022-11-26T23:01:43.023Z,27.50
2022-11-26T23:04:14.642Z,28.40
2022-11-26T23:06:42.432Z,27.60
2022-11-26T23:09:14.741Z,29.20
2022-11-26T23:11:46.301Z,27.90
2022-11-26T23:14:14.239Z,27.40
2022-11-26T23:16:46.158Z,28.90
2022-11-26T23:19:18.347Z,28.30
2022-11-26T23:21:48.646Z,28.90
2022-11-26T23:24:19.807Z,28.90
2022-11-26T23:26:47.669Z,28.90
2022-11-26T23:29:15.756Z,27.90
2022-11-26T23:31:50.748Z,29.50
2022-11-26T23:34:18.538Z,30.30
2022-11-26T23:36:46.446Z,28.70
2022-11-26T23:39:14.304Z,30.40
2022-11-26T23:41:43.259Z,29.20
2022-11-26T23:44:11.054Z,29.30
2022-11-26T23:46:38.936Z,28.40
2022-11-26T23:49:10.732Z,27.70
2022-11-26T23:51:38.468Z,29.90
2022-11-26T23:54:06.249Z,30.20
2022-11-26T23:56:37.741Z,29.30
2022-11-26T23:59:09.148Z,30.10
